Time,TemperatureF,DewpointF,PressureIn,WindDirection,WindDirectionDegrees,WindSpeedMPH,WindSpeedGustMPH,Humidity,HourlyPrecipIn,Conditions,Clouds,dailyrainin,SoftwareType,DateUTC
2013-02-21 00:03:00,21.8,18.5,29.55,SSE,158,0.0,1.0,87,0.00,,---,0.00,VWS V14.01,2013-02-21 07:03:00,
2013-02-21 00:08:00,21.5,18.2,29.55,SSE,157,0.0,0.0,87,0.00,,---,0.00,VWS V14.01,2013-02-21 07:08:00,
2013-02-21 00:13:00,21.4,18.1,29.54,SSE,158,0.0,0.0,87,0.00,,---,0.00,VWS V14.01,2013-02-21 07:13:00,
2013-02-21 00:18:00,21.4,18.1,29.54,SSE,157,0.0,0.0,87,0.00,,---,0.00,VWS V14.01,2013-02-21 07:18:00,
2013-02-21 00:23:00,21.4,18.1,29.54,SSE,158,0.0,0.0,87,0.00,,---,0.00,VWS V14.01,2013-02-21 07:23:00,
2013-02-21 00:28:00,21.2,17.9,29.54,SSE,158,0.0,2.0,87,0.00,,---,0.00,VWS V14.01,2013-02-21 07:28:00,
2013-02-21 00:33:00,21.0,17.8,29.54,SSE,157,0.0,1.0,87,0.00,,---,0.00,VWS V14.01,2013-02-21 07:33:00,
2013-02-21 00:38:00,20.6,17.4,29.54,SSE,157,0.0,0.0,87,0.00,,---,0.00,VWS V14.01,2013-02-21 07:38:00,
2013-02-21 00:43:00,20.4,17.2,29.56,SSE,158,0.0,0.0,87,0.00,,---,0.00,VWS V14.01,2013-02-21 07:43:00,
2013-02-21 00:48:00,20.2,16.7,29.56,SSE,158,0.0,1.0,86,0.00,,---,0.00,VWS V14.01,2013-02-21 07:48:00,
2013-02-21 00:53:00,20.0,16.5,29.56,SSE,158,0.0,0.0,86,0.00,,---,0.00,VWS V14.01,2013-02-21 07:53:00,
2013-02-21 00:58:00,19.7,16.2,29.56,SSE,157,0.0,0.0,86,0.00,,---,0.00,VWS V14.01,2013-02-21 07:58:00,
2013-02-21 01:03:00,19.5,16.0,29.56,SSE,158,0.0,0.0,86,0.00,,---,0.00,VWS V14.01,2013-02-21 08:03:00,
2013-02-21 08:40:00,18.9,14.6,29.79,SSE,158,0.0,0.0,83,0.00,,---,0.00,VWS V14.01,2013-02-21 15:40:00,
2013-02-21 08:56:00,19.9,15.3,29.79,SSE,158,0.0,0.0,82,0.00,,---,0.00,VWS V14.01,2013-02-21 15:56:00,
2013-02-21 09:01:00,20.7,16.4,29.77,SSE,158,0.0,0.0,83,0.00,,---,0.00,VWS V14.01,2013-02-21 16:01:00,
2013-02-21 09:06:00,21.6,17.2,29.77,SSE,158,0.0,0.0,83,0.00,,---,0.00,VWS V14.01,2013-02-21 16:06:00,
2013-02-21 09:11:00,22.3,17.6,29.78,SSE,158,0.0,0.0,82,0.00,,---,0.00,VWS V14.01,2013-02-21 16:11:00,
2013-02-21 09:16:00,22.3,17.4,29.77,SSE,158,0.0,0.0,81,0.00,,---,0.00,VWS V14.01,2013-02-21 16:16:00,
2013-02-21 09:21:00,22.0,17.1,29.77,SSE,158,0.0,0.0,81,0.00,,---,0.00,VWS V14.01,2013-02-21 16:21:00,
2013-02-21 09:26:00,21.7,16.8,29.78,SSE,157,0.0,0.0,81,0.00,,---,0.00,VWS V14.01,2013-02-21 16:26:00,
2013-02-21 09:31:00,21.9,17.3,29.77,SSE,158,0.0,0.0,82,0.00,,---,0.00,VWS V14.01,2013-02-21 16:31:00,
2013-02-21 09:36:00,22.3,17.6,29.78,SSE,158,0.0,0.0,82,0.00,,---,0.00,VWS V14.01,2013-02-21 16:36:00,
2013-02-21 09:41:00,22.6,17.9,29.76,SSE,158,0.0,0.0,82,0.00,,---,0.00,VWS V14.01,2013-02-21 16:41:00,
2013-02-21 09:46:00,22.9,18.2,29.76,SSE,158,1.0,4.0,82,0.00,,---,0.00,VWS V14.01,2013-02-21 16:46:00,
2013-02-21 09:51:00,22.2,17.3,29.78,SSE,158,2.0,2.0,81,0.00,,---,0.00,VWS V14.01,2013-02-21 16:51:00,
2013-02-21 09:56:00,21.7,16.8,29.78,SSE,157,1.0,2.0,81,0.00,,---,0.00,VWS V14.01,2013-02-21 16:56:00,
2013-02-21 10:01:00,21.6,17.0,29.78,SSE,158,2.0,2.0,82,0.00,,---,0.00,VWS V14.01,2013-02-21 17:01:00,
2013-02-21 10:06:00,21.4,16.8,29.78,SSE,158,0.0,1.0,82,0.00,,---,0.00,VWS V14.01,2013-02-21 17:06:00,
2013-02-21 10:11:00,21.5,16.9,29.78,SSE,157,1.0,1.0,82,0.00,,---,0.00,VWS V14.01,2013-02-21 17:11:00,
2013-02-21 10:16:00,21.6,17.0,29.78,SSE,158,0.0,1.0,82,0.00,,---,0.00,VWS V14.01,2013-02-21 17:16:00,
2013-02-21 10:21:00,21.6,17.0,29.78,SSE,158,1.0,2.0,82,0.00,,---,0.00,VWS V14.01,2013-02-21 17:21:00,
2013-02-21 10:26:00,21.6,17.0,29.78,SSE,158,1.0,1.0,82,0.00,,---,0.00,VWS V14.01,2013-02-21 17:26:00,
2013-02-21 10:31:00,21.7,17.1,29.78,SSE,157,0.0,0.0,82,0.00,,---,0.00,VWS V14.01,2013-02-21 17:31:00,
2013-02-21 10:36:00,21.9,17.3,29.78,SSE,158,0.0,0.0,82,0.00,,---,0.00,VWS V14.01,2013-02-21 17:36:00,
2013-02-21 10:41:00,22.0,17.4,29.78,SSE,158,5.0,5.0,82,0.00,,---,0.00,VWS V14.01,2013-02-21 17:41:00,
2013-02-21 10:46:00,22.3,17.6,29.79,SSE,157,1.0,1.0,82,0.00,,---,0.00,VWS V14.01,2013-02-21 17:46:00,
2013-02-21 10:51:00,22.8,17.9,29.77,SSE,158,0.0,0.0,81,0.00,,---,0.00,VWS V14.01,2013-02-21 17:51:00,
2013-02-21 10:56:00,23.1,18.1,29.77,SSE,158,0.0,0.0,81,0.00,,---,0.00,VWS V14.01,2013-02-21 17:56:00,
2013-02-21 11:01:00,23.7,18.7,29.77,SSE,158,4.0,4.0,81,0.00,,---,0.00,VWS V14.01,2013-02-21 18:01:00,
2013-02-21 11:06:00,23.8,18.2,29.77,SSE,158,0.0,0.0,79,0.00,,---,0.00,VWS V14.01,2013-02-21 18:06:00,
2013-02-21 11:11:00,24.3,19.0,29.77,SSE,158,0.0,1.0,80,0.01,,---,0.01,VWS V14.01,2013-02-21 18:11:00,
2013-02-21 11:16:00,25.0,19.4,29.77,SSE,158,1.0,1.0,79,0.01,,---,0.01,VWS V14.01,2013-02-21 18:16:00,
2013-02-21 11:21:00,25.1,18.9,29.77,SSE,158,0.0,0.0,77,0.01,,---,0.01,VWS V14.01,2013-02-21 18:21:00,
2013-02-21 11:26:00,24.0,17.5,29.77,SSE,158,0.0,0.0,76,0.01,,---,0.01,VWS V14.01,2013-02-21 18:26:00,
2013-02-21 11:31:00,23.8,17.7,29.77,SSE,158,5.0,6.0,77,0.01,,---,0.01,VWS V14.01,2013-02-21 18:31:00,
2013-02-21 11:36:00,23.1,17.0,29.79,SSE,157,4.0,4.0,77,0.01,,---,0.01,VWS V14.01,2013-02-21 18:36:00,
2013-02-21 11:41:00,22.9,16.8,29.78,SSE,157,0.0,0.0,77,0.01,,---,0.01,VWS V14.01,2013-02-21 18:41:00,
2013-02-21 11:46:00,23.3,17.5,29.78,SSE,158,4.0,6.0,78,0.02,,---,0.02,VWS V14.01,2013-02-21 18:46:00,
2013-02-21 11:51:00,23.4,17.6,29.78,SSE,158,2.0,4.0,78,0.02,,---,0.02,VWS V14.01,2013-02-21 18:51:00,
2013-02-21 11:56:00,23.4,17.6,29.78,SSE,157,2.0,4.0,78,0.02,,---,0.02,VWS V14.01,2013-02-21 18:56:00,
2013-02-21 12:01:00,23.5,17.7,29.78,SSE,158,0.0,0.0,78,0.02,,---,0.02,VWS V14.01,2013-02-21 19:01:00,
2013-02-21 12:06:00,23.7,17.6,29.76,SSE,158,4.0,5.0,77,0.02,,---,0.02,VWS V14.01,2013-02-21 19:06:00,
2013-02-21 12:11:00,23.8,17.7,29.80,SSE,157,2.0,4.0,77,0.01,,---,0.02,VWS V14.01,2013-02-21 19:11:00,
2013-02-21 12:16:00,23.8,17.7,29.80,SSE,157,2.0,2.0,77,0.01,,---,0.02,VWS V14.01,2013-02-21 19:16:00,
2013-02-21 12:21:00,23.8,17.4,29.79,SSE,158,2.0,4.0,76,0.01,,---,0.02,VWS V14.01,2013-02-21 19:21:00,
2013-02-21 12:26:00,23.6,17.5,29.79,SSE,157,2.0,2.0,77,0.01,,---,0.02,VWS V14.01,2013-02-21 19:26:00,
2013-02-21 12:31:00,23.8,17.4,29.79,SSE,158,0.0,0.0,76,0.02,,---,0.03,VWS V14.01,2013-02-21 19:31:00,
2013-02-21 12:36:00,24.3,18.1,29.79,SSE,158,1.0,1.0,77,0.02,,---,0.03,VWS V14.01,2013-02-21 19:36:00,
2013-02-21 12:41:00,24.7,18.5,29.77,SSE,157,1.0,3.0,77,0.02,,---,0.03,VWS V14.01,2013-02-21 19:41:00,
2013-02-21 12:46:00,25.5,19.3,29.77,SSE,157,0.0,0.0,77,0.01,,---,0.03,VWS V14.01,2013-02-21 19:46:00,
2013-02-21 12:51:00,26.6,20.1,29.75,SSE,158,0.0,1.0,76,0.01,,---,0.03,VWS V14.01,2013-02-21 19:51:00,
2013-02-21 12:56:00,27.0,20.1,29.75,SSE,158,0.0,1.0,75,0.01,,---,0.03,VWS V14.01,2013-02-21 19:56:00,
2013-02-21 13:01:00,26.4,19.2,29.74,SSE,157,0.0,0.0,74,0.02,,---,0.04,VWS V14.01,2013-02-21 20:01:00,
2013-02-21 13:06:00,26.1,19.3,29.76,SSE,158,4.0,5.0,75,0.02,,---,0.04,VWS V14.01,2013-02-21 20:06:00,
2013-02-21 13:11:00,26.0,19.2,29.76,SSE,158,2.0,3.0,75,0.02,,---,0.04,VWS V14.01,2013-02-21 20:11:00,
2013-02-21 13:17:00,26.1,19.3,29.76,SSE,157,1.0,1.0,75,0.02,,---,0.04,VWS V14.01,2013-02-21 20:17:00,
2013-02-21 13:22:00,26.6,19.4,29.76,SSE,158,0.0,0.0,74,0.02,,---,0.04,VWS V14.01,2013-02-21 20:22:00,
2013-02-21 13:27:00,27.2,19.7,29.75,SSE,158,0.0,0.0,73,0.02,,---,0.04,VWS V14.01,2013-02-21 20:27:00,
2013-02-21 13:32:00,27.8,20.6,29.73,SSE,158,0.0,1.0,74,0.02,,---,0.05,VWS V14.01,2013-02-21 20:32:00,
2013-02-21 13:37:00,28.4,20.2,29.73,SSE,157,0.0,0.0,71,0.02,,---,0.05,VWS V14.01,2013-02-21 20:37:00,
2013-02-21 13:42:00,28.8,20.6,29.73,SSE,158,1.0,2.0,71,0.02,,---,0.05,VWS V14.01,2013-02-21 20:42:00,
2013-02-21 13:56:00,27.5,19.0,29.74,SSE,157,1.0,2.0,70,0.03,,---,0.06,VWS V14.01,2013-02-21 20:56:00,
2013-02-21 14:01:00,27.4,19.2,29.75,SSE,158,2.0,2.0,71,0.03,,---,0.06,VWS V14.01,2013-02-21 21:01:00,
2013-02-21 14:06:00,27.4,19.2,29.75,SSE,158,1.0,4.0,71,0.02,,---,0.06,VWS V14.01,2013-02-21 21:06:00,
2013-02-21 14:11:00,27.9,20.1,29.72,SSE,157,0.0,4.0,72,0.02,,---,0.06,VWS V14.01,2013-02-21 21:11:00,
2013-02-21 14:16:00,28.7,20.5,29.71,SSE,158,4.0,4.0,71,0.02,,---,0.06,VWS V14.01,2013-02-21 21:16:00,
2013-02-21 14:21:00,28.5,20.3,29.72,SSE,158,2.0,5.0,71,0.03,,---,0.07,VWS V14.01,2013-02-21 21:21:00,
2013-02-21 14:26:00,28.6,20.1,29.72,SSE,157,2.0,5.0,70,0.03,,---,0.07,VWS V14.01,2013-02-21 21:26:00,
2013-02-21 14:31:00,28.9,20.4,29.72,SSE,157,0.0,5.0,70,0.03,,---,0.07,VWS V14.01,2013-02-21 21:31:00,
2013-02-21 14:36:00,29.3,20.4,29.72,SSE,158,1.0,5.0,69,0.03,,---,0.08,VWS V14.01,2013-02-21 21:36:00,
2013-02-21 14:41:00,28.9,19.7,29.72,SSE,158,3.0,7.0,68,0.03,,---,0.08,VWS V14.01,2013-02-21 21:41:00,
2013-02-21 14:46:00,28.5,19.6,29.72,SSE,157,1.0,6.0,69,0.03,,---,0.08,VWS V14.01,2013-02-21 21:46:00,
2013-02-21 14:51:00,28.7,19.8,29.72,SSE,158,0.0,5.0,69,0.03,,---,0.08,VWS V14.01,2013-02-21 21:51:00,
2013-02-21 14:56:00,28.5,19.0,29.73,SSE,157,3.0,6.0,67,0.02,,---,0.08,VWS V14.01,2013-02-21 21:56:00,
2013-02-21 15:01:00,28.1,18.9,29.73,SSE,158,6.0,8.0,68,0.03,,---,0.09,VWS V14.01,2013-02-21 22:01:00,
2013-02-21 15:06:00,27.9,18.7,29.73,SSE,158,7.0,9.0,68,0.03,,---,0.09,VWS V14.01,2013-02-21 22:06:00,
2013-02-21 15:11:00,27.9,18.7,29.73,SSE,158,3.0,8.0,68,0.03,,---,0.09,VWS V14.01,2013-02-21 22:11:00,
2013-02-21 15:16:00,28.4,18.9,29.73,SSE,158,6.0,8.0,67,0.04,,---,0.10,VWS V14.01,2013-02-21 22:16:00,
2013-02-21 15:21:00,28.7,18.8,29.73,SSE,158,5.0,7.0,66,0.04,,---,0.10,VWS V14.01,2013-02-21 22:21:00,
2013-02-21 15:26:00,29.1,18.8,29.73,SSE,158,1.0,7.0,65,0.03,,---,0.10,VWS V14.01,2013-02-21 22:26:00,
2013-02-21 15:31:00,29.5,19.6,29.73,SSE,158,0.0,7.0,66,0.03,,---,0.10,VWS V14.01,2013-02-21 22:31:00,
2013-02-21 15:36:00,30.1,20.1,29.71,SSE,158,0.0,4.0,66,0.03,,---,0.10,VWS V14.01,2013-02-21 22:36:00,
2013-02-21 15:41:00,30.3,20.3,29.71,SSE,157,0.0,6.0,66,0.03,,---,0.11,VWS V14.01,2013-02-21 22:41:00,
2013-02-21 15:46:00,30.7,20.7,29.71,SSE,157,0.0,2.0,66,0.03,,---,0.11,VWS V14.01,2013-02-21 22:46:00,
2013-02-21 15:51:00,31.0,20.6,29.71,SSE,158,0.0,1.0,65,0.03,,---,0.11,VWS V14.01,2013-02-21 22:51:00,
2013-02-21 15:56:00,31.0,20.6,29.72,SSE,158,0.0,1.0,65,0.04,,---,0.12,VWS V14.01,2013-02-21 22:56:00,
2013-02-21 16:01:00,30.9,20.5,29.71,SSE,158,0.0,2.0,65,0.04,,---,0.12,VWS V14.01,2013-02-21 23:01:00,
2013-02-21 16:06:00,30.8,20.1,29.72,SSE,158,0.0,5.0,64,0.03,,---,0.12,VWS V14.01,2013-02-21 23:06:00,
2013-02-21 16:11:00,30.5,20.1,29.72,SSE,157,0.0,4.0,65,0.03,,---,0.12,VWS V14.01,2013-02-21 23:11:00,
2013-02-21 16:16:00,30.1,19.4,29.73,SSE,158,0.0,5.0,64,0.03,,---,0.12,VWS V14.01,2013-02-21 23:16:00,
2013-02-21 16:21:00,29.5,19.6,29.73,SSE,158,0.0,4.0,66,0.03,,---,0.13,VWS V14.01,2013-02-21 23:21:00,
2013-02-21 16:26:00,29.0,19.8,29.74,SSE,157,0.0,1.0,68,0.03,,---,0.13,VWS V14.01,2013-02-21 23:26:00,
2013-02-21 16:31:00,28.8,19.6,29.74,SSE,157,0.0,1.0,68,0.03,,---,0.13,VWS V14.01,2013-02-21 23:31:00,
2013-02-21 16:36:00,29.0,19.8,29.74,SSE,158,0.0,2.0,68,0.03,,---,0.13,VWS V14.01,2013-02-21 23:36:00,
2013-02-21 16:41:00,29.3,19.7,29.75,SSE,158,2.0,5.0,67,0.03,,---,0.13,VWS V14.01,2013-02-21 23:41:00,
2013-02-21 16:46:00,29.4,19.8,29.75,SSE,157,1.0,2.0,67,0.03,,---,0.14,VWS V14.01,2013-02-21 23:46:00,
2013-02-21 16:51:00,29.3,19.7,29.75,SSE,158,1.0,4.0,67,0.03,,---,0.14,VWS V14.01,2013-02-21 23:51:00,
2013-02-21 16:56:00,29.0,19.1,29.75,SSE,158,0.0,4.0,66,0.03,,---,0.14,VWS V14.01,2013-02-21 23:56:00,
2013-02-21 17:01:00,28.6,19.0,29.75,SSE,157,3.0,6.0,67,0.02,,---,0.14,VWS V14.01,2013-02-22 00:01:00,
2013-02-21 17:06:00,28.0,18.8,29.76,SSE,158,0.0,4.0,68,0.02,,---,0.14,VWS V14.01,2013-02-22 00:06:00,
2013-02-21 17:11:00,27.5,19.0,29.78,SSE,158,0.0,0.0,70,0.02,,---,0.14,VWS V14.01,2013-02-22 00:11:00,
2013-02-21 17:16:00,26.6,18.1,29.78,SSE,158,0.0,1.0,70,0.02,,---,0.14,VWS V14.01,2013-02-22 00:16:00,
2013-02-21 17:21:00,25.6,17.2,29.80,SSE,157,0.0,0.0,70,0.01,,---,0.14,VWS V14.01,2013-02-22 00:21:00,
2013-02-21 17:26:00,24.9,16.8,29.80,SSE,158,0.0,0.0,71,0.01,,---,0.14,VWS V14.01,2013-02-22 00:26:00,
2013-02-21 17:31:00,24.4,16.7,29.82,SSE,157,0.0,0.0,72,0.01,,---,0.14,VWS V14.01,2013-02-22 00:31:00,
2013-02-21 17:36:00,24.1,16.4,29.83,SSE,158,0.0,0.0,72,0.01,,---,0.14,VWS V14.01,2013-02-22 00:36:00,
2013-02-21 17:41:00,23.8,16.4,29.84,SSE,158,1.0,2.0,73,0.01,,---,0.14,VWS V14.01,2013-02-22 00:41:00,
2013-02-21 17:46:00,22.9,15.2,29.85,SSE,158,0.0,0.0,72,0.00,,---,0.14,VWS V14.01,2013-02-22 00:46:00,
2013-02-21 17:51:00,22.3,15.3,29.87,SSE,157,1.0,1.0,74,0.00,,---,0.14,VWS V14.01,2013-02-22 00:51:00,
2013-02-21 17:56:00,22.2,16.1,29.87,SSE,158,1.0,2.0,77,0.00,,---,0.14,VWS V14.01,2013-02-22 00:56:00,
2013-02-21 18:01:00,22.1,16.3,29.88,SSE,158,0.0,0.0,78,0.00,,---,0.14,VWS V14.01,2013-02-22 01:01:00,
2013-02-21 18:06:00,22.2,17.0,29.88,SSE,157,2.0,2.0,80,0.00,,---,0.14,VWS V14.01,2013-02-22 01:06:00,
2013-02-21 18:11:00,22.5,17.6,29.87,SSE,158,0.0,0.0,81,0.00,,---,0.14,VWS V14.01,2013-02-22 01:11:00,
2013-02-21 18:16:00,22.5,17.9,29.87,SSE,157,1.0,1.0,82,0.00,,---,0.14,VWS V14.01,2013-02-22 01:16:00,
2013-02-21 18:21:00,22.5,17.9,29.87,SSE,157,4.0,5.0,82,0.00,,---,0.14,VWS V14.01,2013-02-22 01:21:00,
2013-02-21 18:26:00,22.2,17.5,29.90,SSE,158,1.0,2.0,82,0.00,,---,0.14,VWS V14.01,2013-02-22 01:26:00,
2013-02-21 18:31:00,21.7,17.1,29.90,SSE,157,3.0,5.0,82,0.00,,---,0.14,VWS V14.01,2013-02-22 01:31:00,
2013-02-21 18:36:00,21.5,17.1,29.90,SSE,158,0.0,2.0,83,0.00,,---,0.14,VWS V14.01,2013-02-22 01:36:00,
2013-02-21 18:41:00,21.3,17.0,29.90,SSE,158,6.0,6.0,83,0.00,,---,0.14,VWS V14.01,2013-02-22 01:41:00,
2013-02-21 18:46:00,21.2,16.9,29.90,SSE,157,1.0,2.0,83,0.00,,---,0.14,VWS V14.01,2013-02-22 01:46:00,
2013-02-21 18:51:00,21.2,16.9,29.91,SSE,157,1.0,2.0,83,0.00,,---,0.14,VWS V14.01,2013-02-22 01:51:00,
2013-02-21 18:56:00,21.3,17.0,29.91,SSE,158,2.0,2.0,83,0.00,,---,0.14,VWS V14.01,2013-02-22 01:56:00,
2013-02-21 19:01:00,21.3,17.0,29.92,SSE,157,4.0,5.0,83,0.00,,---,0.14,VWS V14.01,2013-02-22 02:01:00,
2013-02-21 19:06:00,21.1,16.8,29.92,SSE,157,1.0,4.0,83,0.00,,---,0.14,VWS V14.01,2013-02-22 02:06:00,
2013-02-21 19:11:00,20.9,16.6,29.92,SSE,158,0.0,4.0,83,0.00,,---,0.14,VWS V14.01,2013-02-22 02:11:00,
2013-02-21 19:16:00,20.7,16.4,29.93,SSE,158,0.0,0.0,83,0.00,,---,0.14,VWS V14.01,2013-02-22 02:16:00,
2013-02-21 19:21:00,20.7,16.6,29.93,SSE,158,0.0,0.0,84,0.00,,---,0.14,VWS V14.01,2013-02-22 02:21:00,
2013-02-21 19:26:00,20.8,16.7,29.93,SSE,157,0.0,0.0,84,0.00,,---,0.14,VWS V14.01,2013-02-22 02:26:00,
2013-02-21 19:31:00,20.8,16.7,29.93,SSE,158,1.0,1.0,84,0.00,,---,0.14,VWS V14.01,2013-02-22 02:31:00,
2013-02-21 19:36:00,20.7,16.6,29.94,SSE,157,1.0,1.0,84,0.00,,---,0.14,VWS V14.01,2013-02-22 02:36:00,
2013-02-21 19:41:00,20.6,16.3,29.94,SSE,157,1.0,1.0,83,0.00,,---,0.14,VWS V14.01,2013-02-22 02:41:00,
2013-02-21 19:46:00,20.4,16.1,29.96,SSE,157,0.0,5.0,83,0.00,,---,0.14,VWS V14.01,2013-02-22 02:46:00,
2013-02-21 19:52:00,20.1,15.8,29.97,SSE,157,5.0,6.0,83,0.00,,---,0.14,VWS V14.01,2013-02-22 02:52:00,
2013-02-21 19:57:00,19.8,15.5,29.97,SSE,157,0.0,0.0,83,0.00,,---,0.14,VWS V14.01,2013-02-22 02:57:00,
2013-02-21 20:02:00,19.7,15.4,29.97,SSE,158,1.0,2.0,83,0.00,,---,0.14,VWS V14.01,2013-02-22 03:02:00,
2013-02-21 20:07:00,19.7,15.7,29.97,SSE,158,0.0,0.0,84,0.00,,---,0.14,VWS V14.01,2013-02-22 03:07:00,
2013-02-21 20:12:00,19.7,15.7,29.94,SSE,157,0.0,1.0,84,0.00,,---,0.14,VWS V14.01,2013-02-22 03:12:00,
2013-02-21 20:17:00,19.7,15.7,29.94,SSE,158,0.0,1.0,84,0.00,,---,0.14,VWS V14.01,2013-02-22 03:17:00,
2013-02-21 20:22:00,19.5,15.5,29.94,SSE,157,0.0,1.0,84,0.00,,---,0.14,VWS V14.01,2013-02-22 03:22:00,
2013-02-21 20:27:00,19.4,15.4,29.96,SSE,158,0.0,2.0,84,0.00,,---,0.14,VWS V14.01,2013-02-22 03:27:00,
2013-02-21 20:32:00,19.3,15.3,29.97,SSE,158,0.0,1.0,84,0.00,,---,0.14,VWS V14.01,2013-02-22 03:32:00,
2013-02-21 20:37:00,19.3,15.3,29.97,SSE,158,0.0,0.0,84,0.00,,---,0.14,VWS V14.01,2013-02-22 03:37:00,
2013-02-21 20:42:00,19.4,15.4,29.97,SSE,158,0.0,1.0,84,0.00,,---,0.14,VWS V14.01,2013-02-22 03:42:00,
2013-02-21 20:47:00,19.4,15.4,29.97,SSE,158,2.0,2.0,84,0.00,,---,0.14,VWS V14.01,2013-02-22 03:47:00,
2013-02-21 20:52:00,19.3,15.3,29.97,SSE,157,0.0,0.0,84,0.00,,---,0.14,VWS V14.01,2013-02-22 03:52:00,
2013-02-21 20:57:00,19.3,15.3,29.97,SSE,157,0.0,0.0,84,0.00,,---,0.14,VWS V14.01,2013-02-22 03:57:00,
2013-02-21 21:02:00,19.4,15.4,29.97,SSE,157,0.0,1.0,84,0.00,,---,0.14,VWS V14.01,2013-02-22 04:02:00,
2013-02-21 21:07:00,19.4,15.4,29.98,SSE,157,0.0,1.0,84,0.00,,---,0.14,VWS V14.01,2013-02-22 04:07:00,
2013-02-21 21:12:00,19.5,15.5,29.96,SSE,158,2.0,5.0,84,0.00,,---,0.14,VWS V14.01,2013-02-22 04:12:00,
2013-02-21 21:17:00,19.5,15.5,29.98,SSE,157,2.0,3.0,84,0.00,,---,0.14,VWS V14.01,2013-02-22 04:17:00,
2013-02-21 21:22:00,19.4,15.4,29.99,SSE,158,0.0,3.0,84,0.00,,---,0.14,VWS V14.01,2013-02-22 04:22:00,
2013-02-21 21:27:00,18.9,14.6,29.99,SSE,158,2.0,4.0,83,0.00,,---,0.14,VWS V14.01,2013-02-22 04:27:00,
2013-02-21 21:32:00,18.5,14.2,29.99,SSE,157,1.0,4.0,83,0.00,,---,0.14,VWS V14.01,2013-02-22 04:32:00,
2013-02-21 21:37:00,18.4,14.4,29.99,SSE,158,0.0,2.0,84,0.00,,---,0.14,VWS V14.01,2013-02-22 04:37:00,
2013-02-21 21:42:00,18.4,14.4,29.99,SSE,157,2.0,6.0,84,0.00,,---,0.14,VWS V14.01,2013-02-22 04:42:00,
2013-02-21 21:47:00,18.5,14.5,29.99,SSE,157,0.0,0.0,84,0.00,,---,0.14,VWS V14.01,2013-02-22 04:47:00,
2013-02-21 21:52:00,18.6,14.6,29.99,SSE,158,1.0,5.0,84,0.00,,---,0.14,VWS V14.01,2013-02-22 04:52:00,
2013-02-21 21:57:00,18.8,14.8,29.99,SSE,158,0.0,4.0,84,0.00,,---,0.14,VWS V14.01,2013-02-22 04:57:00,
2013-02-21 22:00:00,18.9,14.9,29.99,SSE,158,4.0,5.0,84,0.00,,---,0.14,VWS V14.01,2013-02-22 05:00:00,
2013-02-21 22:01:00,18.8,14.8,29.99,SSE,157,0.0,6.0,84,0.00,,---,0.14,VWS V14.01,2013-02-22 05:01:00,
2013-02-21 22:02:00,18.8,14.8,29.99,SSE,157,1.0,1.0,84,0.00,,---,0.14,VWS V14.01,2013-02-22 05:02:00,
2013-02-21 22:07:00,18.8,14.8,29.97,SSE,158,0.0,0.0,84,0.00,,---,0.14,VWS V14.01,2013-02-22 05:07:00,
2013-02-21 22:12:00,18.8,14.8,29.97,SSE,157,1.0,7.0,84,0.00,,---,0.14,VWS V14.01,2013-02-22 05:12:00,
2013-02-21 22:17:00,18.7,14.7,29.97,SSE,158,0.0,3.0,84,0.00,,---,0.14,VWS V14.01,2013-02-22 05:17:00,
2013-02-21 22:18:00,18.6,14.6,29.97,SSE,158,0.0,3.0,84,0.00,,---,0.14,VWS V14.01,2013-02-22 05:18:00,
2013-02-21 22:23:00,18.6,14.9,29.97,SSE,158,1.0,2.0,85,0.00,,---,0.14,VWS V14.01,2013-02-22 05:23:00,